Glenrothes, United Kingdom
Current Conditions -  °F | °C
As of 10:50 PM on Wednesday 22 Oct 2014 (Local Time) from EGQL Reporting Station
Broken Clouds Broken Clouds  
Wind Chill: 54°   Ceiling: 1500
Heat Index: 54°   Visibility: 6mi
Dew Point: 48°   Wind: 17mph
Humidity: 82%   Direction: 240°WSW
Pressure: 29.85"   Gusts: NA
Location:  56.2°N, 3.17°W
Report Text: EGQL 222150Z 24015KT 9999 BKN015 BKN022 12/09 Q1011 /
Loading
Personal Weather Stations






























Interactive Weather Map
Tropical Storm Tracking
New forecast layout! Learn more

10-Day Weather Forecast

Advertisements
Track Severe Weather on mobile